Portada
METAR-TAF:

METAR-TAF

Aeropuertos :

Almagro, España

Base Aérea de Almagro

latitud: 38-57-11N, longitud: 3-44-29W, altitud: 629 m

METAR: falta

Hora: 03:49 (02:49 UTC)

Pronóstico

El informe se hizo hace 9 horas y 49 minutos, a las 17:00 UTC
Pronóstico válido del 17 a las 18 UTC al 18 a las 03 UTC
Viento 4 kt del este-noreste
Visibilidad 10 km o más
Escasas nubes a una altura de 4200 ft

TAF: LEAO 171700Z 1718/1803 07004KT 9999 FEW042

Observaciones y pronósticos meteorológicos de más de 4000 aeropuertos (mensajes METAR y TAF).

Los puntos amarillos y rojos representan las estaciones disponibles.

Ponga el ratón en el punto deseado para ver el nombre de la estación.

Haga clic para ver las observaciones y los pronósticos meteorológicos.

Para cambiar el mapa : haga clic en los botones verdes con una cruz de color negro para hacer un zoom, en el botón verde con un guión para alejar o en las flechas verdes para mapas adyacentes.


METAR-TAF: